Airport ID:KJTC
Update Time (UTC):27/01/2021 23:06
Wind Speed (Knots):8
Wind Direction (Magnetic):320
Temperature (°C):6
Dew Point (°C):-7
Humidity (%):42
Altimeter (inHg):30.21
Density Altitude (Feet):
Visibility:10+
Clouds (Hundreds of feet):CLR
Present Weather:
METAR:METAR KJTC 272305Z AUTO 34009KT 10SM CLR 06/M07 A3021 RMK AO2

The data displayed is for advisory purposes only and is not to be used for flight planning or operations.